createdAt,value
2022-09-12T00:00:08.204Z,13.25
2022-09-12T00:01:08.282Z,13.25
2022-09-12T00:02:08.220Z,13.22
2022-09-12T00:03:08.168Z,13.21
2022-09-12T00:04:08.165Z,13.20
2022-09-12T00:05:08.155Z,13.17
2022-09-12T00:06:08.136Z,13.18
2022-09-12T00:07:08.116Z,13.18
2022-09-12T00:08:08.176Z,13.15
2022-09-12T00:09:08.098Z,13.14
2022-09-12T00:10:08.107Z,13.12
2022-09-12T00:11:08.076Z,13.12
2022-09-12T00:12:08.065Z,13.09
2022-09-12T00:13:08.047Z,13.04
2022-09-12T00:14:08.099Z,13.00
2022-09-12T00:15:08.026Z,12.97
2022-09-12T00:16:08.110Z,12.96
2022-09-12T00:17:08.009Z,12.95
2022-09-12T00:18:07.998Z,12.95
2022-09-12T00:19:07.978Z,12.92
2022-09-12T00:20:07.991Z,12.87
2022-09-12T00:21:07.969Z,12.85
2022-09-12T00:22:07.951Z,12.87
2022-09-12T00:23:07.939Z,12.87
2022-09-12T00:24:07.935Z,12.84
2022-09-12T00:25:07.944Z,12.85
2022-09-12T00:26:07.905Z,12.84
2022-09-12T00:27:07.894Z,12.88
2022-09-12T00:28:07.885Z,12.88
2022-09-12T00:29:07.862Z,12.87
2022-09-12T00:30:07.859Z,12.85
2022-09-12T00:31:07.875Z,12.85
2022-09-12T00:32:07.847Z,12.85
2022-09-12T00:33:07.830Z,12.84
2022-09-12T00:34:07.814Z,12.84
2022-09-12T00:35:07.791Z,12.82
2022-09-12T00:36:07.782Z,12.84
2022-09-12T00:37:07.806Z,12.85
2022-09-12T00:38:07.777Z,12.85
2022-09-12T00:39:07.751Z,12.85
2022-09-12T00:40:07.781Z,12.85
2022-09-12T00:41:07.722Z,12.84
2022-09-12T00:42:07.713Z,12.84
2022-09-12T00:43:07.732Z,12.84
2022-09-12T00:44:07.700Z,12.81
2022-09-12T00:45:07.684Z,12.79
2022-09-12T00:46:07.672Z,12.79
2022-09-12T00:47:07.661Z,12.79
2022-09-12T00:48:07.654Z,12.79
2022-09-12T00:49:07.703Z,12.78
2022-09-12T00:50:07.623Z,12.75
2022-09-12T00:51:07.620Z,12.77
2022-09-12T00:52:07.594Z,12.77
2022-09-12T00:53:07.590Z,12.78
2022-09-12T00:54:07.619Z,12.78
2022-09-12T00:55:07.573Z,12.74
2022-09-12T00:56:07.564Z,12.74
2022-09-12T00:57:07.544Z,12.74
2022-09-12T00:58:07.535Z,12.71
2022-09-12T00:59:07.537Z,12.71
2022-09-12T01:00:07.527Z,12.70
2022-09-12T01:01:07.580Z,12.69
2022-09-12T01:02:07.562Z,12.67
2022-09-12T01:03:07.476Z,12.69
2022-09-12T01:04:07.476Z,12.63
2022-09-12T01:05:07.458Z,12.62
2022-09-12T01:06:07.461Z,12.57
2022-09-12T01:07:07.436Z,12.57
2022-09-12T01:08:07.430Z,12.57
2022-09-12T01:09:07.408Z,12.59
2022-09-12T01:10:07.389Z,12.57
2022-09-12T01:11:07.427Z,12.57
2022-09-12T01:12:07.376Z,12.56
2022-09-12T01:13:07.369Z,12.54
2022-09-12T01:14:07.351Z,12.52
2022-09-12T01:15:07.342Z,12.52
2022-09-12T01:16:07.353Z,12.51
2022-09-12T01:17:07.341Z,12.52
2022-09-12T01:18:07.301Z,12.56
2022-09-12T01:19:07.288Z,12.60
2022-09-12T01:20:07.281Z,12.56
2022-09-12T01:21:07.270Z,12.56
2022-09-12T01:22:07.287Z,12.54
2022-09-12T01:23:07.251Z,12.52
2022-09-12T01:24:07.235Z,12.54
2022-09-12T01:25:07.232Z,12.54
2022-09-12T01:26:07.211Z,12.52
2022-09-12T01:27:07.203Z,12.51
2022-09-12T01:28:07.215Z,12.51
2022-09-12T01:29:07.180Z,12.49
2022-09-12T01:30:07.165Z,12.46
2022-09-12T01:31:07.180Z,12.45
2022-09-12T01:32:07.168Z,12.42
2022-09-12T01:33:07.143Z,12.42
2022-09-12T01:34:07.285Z,12.38
2022-09-12T01:35:07.101Z,12.37
2022-09-12T01:36:07.093Z,12.33
2022-09-12T01:37:07.087Z,12.30
2022-09-12T01:38:07.092Z,12.30
2022-09-12T01:39:07.061Z,12.29
2022-09-12T01:40:07.139Z,12.26
2022-09-12T01:41:07.042Z,12.23
2022-09-12T01:42:07.033Z,12.21
2022-09-12T01:43:07.038Z,12.16
2022-09-12T01:44:07.006Z,12.13
2022-09-12T01:45:07.002Z,12.12
2022-09-12T01:46:07.071Z,12.11
2022-09-12T01:47:06.973Z,12.11
2022-09-12T01:48:06.963Z,12.12
2022-09-12T01:49:06.955Z,12.11
2022-09-12T01:50:06.934Z,12.08
2022-09-12T01:51:06.928Z,12.09
2022-09-12T01:52:06.926Z,12.05
2022-09-12T01:53:06.909Z,12.05
2022-09-12T01:54:06.905Z,12.04
2022-09-12T01:55:09.758Z,11.99
2022-09-12T01:56:06.875Z,11.97
2022-09-12T01:57:06.857Z,11.96
2022-09-12T01:58:06.878Z,11.94
2022-09-12T01:59:06.827Z,11.96
2022-09-12T02:00:06.815Z,11.90
2022-09-12T02:01:06.843Z,11.94
2022-09-12T02:02:06.806Z,11.97
2022-09-12T02:03:06.787Z,11.96
2022-09-12T02:04:06.808Z,11.96
2022-09-12T02:05:06.756Z,11.96
2022-09-12T02:06:06.750Z,11.97
2022-09-12T02:07:06.736Z,12.01
2022-09-12T02:08:06.764Z,12.01
2022-09-12T02:09:06.720Z,12.02
2022-09-12T02:10:06.741Z,12.01
2022-09-12T02:11:06.698Z,11.99
2022-09-12T02:12:06.697Z,11.97
2022-09-12T02:13:06.669Z,11.97
2022-09-12T02:14:06.659Z,11.90
2022-09-12T02:15:06.646Z,11.89
2022-09-12T02:16:06.751Z,11.87
2022-09-12T02:17:06.640Z,11.85
2022-09-12T02:18:06.619Z,11.83
2022-09-12T02:19:06.609Z,11.82
2022-09-12T02:20:06.589Z,11.80
2022-09-12T02:21:06.580Z,11.75
2022-09-12T02:22:06.608Z,11.72
2022-09-12T02:23:06.571Z,11.68
2022-09-12T02:24:06.549Z,11.64
2022-09-12T02:25:06.530Z,11.62
2022-09-12T02:26:06.523Z,11.59
2022-09-12T02:27:06.509Z,11.59
2022-09-12T02:28:06.541Z,11.59
2022-09-12T02:29:06.483Z,11.59
2022-09-12T02:30:06.485Z,11.61
2022-09-12T02:31:06.510Z,11.61
2022-09-12T02:32:06.465Z,11.61
2022-09-12T02:33:06.440Z,11.61
2022-09-12T02:34:06.463Z,11.61
2022-09-12T02:35:06.422Z,11.59
2022-09-12T02:36:06.412Z,11.56
2022-09-12T02:37:06.404Z,11.54
2022-09-12T02:38:06.392Z,11.53
2022-09-12T02:39:06.380Z,11.49
2022-09-12T02:40:06.421Z,11.47
2022-09-12T02:41:06.353Z,11.44
2022-09-12T02:42:06.342Z,11.44
2022-09-12T02:43:06.333Z,11.39
2022-09-12T02:44:06.322Z,11.43
2022-09-12T02:45:06.334Z,11.47
2022-09-12T02:46:06.329Z,11.46
2022-09-12T02:47:06.302Z,11.46
2022-09-12T02:48:06.273Z,11.46
2022-09-12T02:49:08.812Z,11.44
2022-09-12T02:50:06.254Z,11.44
2022-09-12T02:51:06.286Z,11.44
2022-09-12T02:52:06.227Z,11.41
2022-09-12T02:53:06.215Z,11.41
2022-09-12T02:54:06.204Z,11.39
2022-09-12T02:55:06.184Z,11.41
2022-09-12T02:56:06.175Z,11.38
2022-09-12T02:57:06.218Z,11.36
2022-09-12T02:58:06.164Z,11.34
2022-09-12T02:59:06.161Z,11.35
2022-09-12T03:00:06.145Z,11.35
2022-09-12T03:01:06.178Z,11.35
2022-09-12T03:02:06.156Z,11.34
2022-09-12T03:03:06.187Z,11.32
2022-09-12T03:04:06.119Z,11.28
2022-09-12T03:05:06.077Z,11.28
2022-09-12T03:06:06.068Z,11.28
2022-09-12T03:07:06.057Z,11.27
2022-09-12T03:08:06.053Z,11.28
2022-09-12T03:09:06.056Z,11.31
2022-09-12T03:10:06.017Z,11.34
2022-09-12T03:11:06.018Z,11.32
2022-09-12T03:12:06.008Z,11.32
2022-09-12T03:13:06.015Z,11.32
2022-09-12T03:14:05.999Z,11.32
2022-09-12T03:15:05.971Z,11.34
2022-09-12T03:16:06.016Z,11.32
2022-09-12T03:17:05.948Z,11.32
2022-09-12T03:18:05.938Z,11.34
2022-09-12T03:19:05.932Z,11.36
2022-09-12T03:20:05.969Z,11.35
2022-09-12T03:21:05.914Z,11.35
2022-09-12T03:22:05.890Z,11.35
2022-09-12T03:23:05.869Z,11.36
2022-09-12T03:24:05.892Z,11.35
2022-09-12T03:25:05.852Z,11.36
2022-09-12T03:26:05.890Z,11.36
2022-09-12T03:27:05.873Z,11.39
2022-09-12T03:28:05.819Z,11.41
2022-09-12T03:29:05.801Z,11.41
2022-09-12T03:30:05.808Z,11.41
2022-09-12T03:31:05.815Z,11.41
2022-09-12T03:32:05.792Z,11.39
2022-09-12T03:33:05.760Z,11.38
2022-09-12T03:34:05.751Z,11.39
2022-09-12T03:35:05.791Z,11.41
2022-09-12T03:36:05.731Z,11.39
2022-09-12T03:37:05.740Z,11.43
2022-09-12T03:38:05.731Z,11.44
2022-09-12T03:39:05.702Z,11.44
2022-09-12T03:40:05.759Z,11.44
2022-09-12T03:41:05.669Z,11.43
2022-09-12T03:42:05.662Z,11.41
2022-09-12T03:43:05.652Z,11.39
2022-09-12T03:44:05.678Z,11.39
2022-09-12T03:45:05.636Z,11.36
2022-09-12T03:46:05.651Z,11.36
2022-09-12T03:47:09.301Z,11.35
2022-09-12T03:48:06.604Z,11.34
2022-09-12T03:49:05.575Z,11.34
2022-09-12T03:50:05.613Z,11.32
2022-09-12T03:51:05.554Z,11.31
2022-09-12T03:52:05.544Z,11.31
2022-09-12T03:53:05.543Z,11.29
2022-09-12T03:54:05.535Z,11.29
2022-09-12T03:55:05.504Z,11.29
2022-09-12T03:56:05.527Z,11.27
2022-09-12T03:57:05.497Z,11.25
2022-09-12T03:58:05.473Z,11.24
2022-09-12T03:59:05.477Z,11.19
2022-09-12T04:00:05.467Z,11.17
2022-09-12T04:01:05.486Z,11.16
2022-09-12T04:02:05.518Z,11.14
2022-09-12T04:03:05.476Z,11.13
2022-09-12T04:04:05.425Z,11.11
2022-09-12T04:05:05.730Z,11.10
2022-09-12T04:06:05.428Z,11.09
2022-09-12T04:07:06.199Z,11.07
2022-09-12T04:08:05.499Z,11.06
2022-09-12T04:09:05.430Z,11.02
2022-09-12T04:10:05.348Z,11.01
2022-09-12T04:11:05.338Z,10.98
2022-09-12T04:12:05.308Z,10.95
2022-09-12T04:13:05.309Z,10.94
2022-09-12T04:14:05.326Z,10.89
2022-09-12T04:15:05.278Z,10.89
2022-09-12T04:16:05.266Z,10.92
2022-09-12T04:17:05.268Z,10.92
2022-09-12T04:18:06.056Z,10.89
2022-09-12T04:19:05.267Z,10.88
2022-09-12T04:20:05.239Z,10.88
2022-09-12T04:21:05.265Z,10.86
2022-09-12T04:22:05.213Z,10.88
2022-09-12T04:23:05.198Z,10.84
2022-09-12T04:24:05.190Z,10.81
2022-09-12T04:25:05.197Z,10.80
2022-09-12T04:26:05.149Z,10.80
2022-09-12T04:27:07.793Z,10.84
2022-09-12T04:28:05.141Z,10.84
2022-09-12T04:29:05.134Z,10.84
2022-09-12T04:30:05.122Z,10.84
2022-09-12T04:31:05.173Z,10.83
2022-09-12T04:32:05.091Z,10.84
2022-09-12T04:33:08.025Z,10.81
2022-09-12T04:34:05.071Z,10.78
2022-09-12T04:35:05.066Z,10.77
2022-09-12T04:36:05.071Z,10.76
2022-09-12T04:37:05.034Z,10.74
2022-09-12T04:38:05.019Z,10.71
2022-09-12T04:39:05.013Z,10.70
2022-09-12T04:40:05.079Z,10.70
2022-09-12T04:41:04.984Z,10.65
2022-09-12T04:42:04.999Z,10.63
2022-09-12T04:43:04.974Z,10.62
2022-09-12T04:44:04.968Z,10.59
2022-09-12T04:45:04.955Z,10.60
2022-09-12T04:46:05.025Z,10.59
2022-09-12T04:47:04.953Z,10.60
2022-09-12T04:48:04.902Z,10.60
2022-09-12T04:49:04.892Z,10.62
2022-09-12T04:50:05.118Z,10.59
2022-09-12T04:51:04.907Z,10.58
2022-09-12T04:52:04.954Z,10.56
2022-09-12T04:53:04.863Z,10.56
2022-09-12T04:54:04.853Z,10.55
2022-09-12T04:55:04.832Z,10.56
2022-09-12T04:56:04.817Z,10.56
2022-09-12T04:57:04.797Z,10.59
2022-09-12T04:58:04.804Z,10.59
2022-09-12T04:59:04.773Z,10.59
2022-09-12T05:00:07.233Z,10.62
2022-09-12T05:01:04.847Z,10.63
2022-09-12T05:02:04.783Z,10.65
2022-09-12T05:03:04.736Z,10.66
2022-09-12T05:04:04.805Z,10.68
2022-09-12T05:05:04.725Z,10.71
2022-09-12T05:06:04.725Z,10.74
2022-09-12T05:07:04.689Z,10.76
2022-09-12T05:08:04.674Z,10.76
2022-09-12T05:09:04.717Z,10.77
2022-09-12T05:10:04.660Z,10.80
2022-09-12T05:11:04.646Z,10.80
2022-09-12T05:12:05.651Z,10.84
2022-09-12T05:13:04.646Z,10.84
2022-09-12T05:14:04.625Z,10.86
2022-09-12T05:15:04.765Z,10.88
2022-09-12T05:16:04.587Z,10.89
2022-09-12T05:17:04.661Z,10.89
2022-09-12T05:18:04.567Z,10.89
2022-09-12T05:19:04.553Z,10.89
2022-09-12T05:20:04.623Z,10.91
2022-09-12T05:21:04.518Z,10.89
2022-09-12T05:22:04.511Z,10.91
2022-09-12T05:23:04.508Z,10.91
2022-09-12T05:24:04.567Z,10.92
2022-09-12T05:25:04.477Z,10.94
2022-09-12T05:26:04.491Z,10.95
2022-09-12T05:27:04.463Z,10.96
2022-09-12T05:28:04.449Z,10.98
2022-09-12T05:29:04.431Z,10.98
2022-09-12T05:30:04.427Z,10.99
2022-09-12T05:31:04.455Z,11.02
2022-09-12T05:32:04.402Z,11.06
2022-09-12T05:33:04.389Z,11.06
2022-09-12T05:34:04.422Z,11.07
2022-09-12T05:35:04.371Z,11.07
2022-09-12T05:36:04.370Z,11.09
2022-09-12T05:37:04.400Z,11.10
2022-09-12T05:38:04.350Z,11.09
2022-09-12T05:39:04.454Z,11.10
2022-09-12T05:40:04.379Z,11.13
2022-09-12T05:41:04.311Z,11.11
2022-09-12T05:42:04.312Z,11.13
2022-09-12T05:43:04.276Z,11.16
2022-09-12T05:44:04.272Z,11.16
2022-09-12T05:45:04.244Z,11.16
2022-09-12T05:46:04.284Z,11.14
2022-09-12T05:47:04.222Z,11.14
2022-09-12T05:48:04.253Z,11.14
2022-09-12T05:49:04.191Z,11.16
2022-09-12T05:50:04.192Z,11.17
2022-09-12T05:51:04.183Z,11.17
2022-09-12T05:52:04.162Z,11.17
2022-09-12T05:53:04.185Z,11.21
2022-09-12T05:54:04.153Z,11.20
2022-09-12T05:55:04.142Z,11.24
2022-09-12T05:56:04.125Z,11.27
2022-09-12T05:57:04.115Z,11.28
2022-09-12T05:58:04.127Z,11.29
2022-09-12T05:59:04.115Z,11.31
2022-09-12T06:00:04.073Z,11.34
2022-09-12T06:01:04.107Z,11.38
2022-09-12T06:02:04.154Z,11.44
2022-09-12T06:03:04.045Z,11.49
2022-09-12T06:04:04.056Z,11.56
2022-09-12T06:05:04.014Z,11.67
2022-09-12T06:06:04.017Z,11.75
2022-09-12T06:07:04.001Z,11.85
2022-09-12T06:08:03.989Z,11.90
2022-09-12T06:09:03.977Z,11.97
2022-09-12T06:10:03.985Z,12.02
2022-09-12T06:11:03.999Z,12.06
2022-09-12T06:12:03.937Z,12.12
2022-09-12T06:13:03.937Z,12.13
2022-09-12T06:14:03.925Z,12.21
2022-09-12T06:15:03.923Z,12.29
2022-09-12T06:16:03.932Z,12.34
2022-09-12T06:17:03.928Z,12.37
2022-09-12T06:18:03.869Z,12.45
2022-09-12T06:19:03.876Z,12.48
2022-09-12T06:20:03.859Z,12.56
2022-09-12T06:21:03.844Z,12.62
2022-09-12T06:22:03.849Z,12.67
2022-09-12T06:23:03.817Z,12.71
2022-09-12T06:24:03.820Z,12.74
2022-09-12T06:25:03.797Z,12.75
2022-09-12T06:26:03.778Z,12.77
2022-09-12T06:27:03.791Z,12.82
2022-09-12T06:28:03.778Z,12.87
2022-09-12T06:29:03.757Z,12.93
2022-09-12T06:30:03.732Z,12.99
2022-09-12T06:31:03.783Z,13.04
2022-09-12T06:32:03.731Z,13.04
2022-09-12T06:33:03.755Z,13.09
2022-09-12T06:34:03.698Z,13.11
2022-09-12T06:35:03.692Z,13.09
2022-09-12T06:36:03.659Z,13.11
2022-09-12T06:37:03.671Z,13.12
2022-09-12T06:38:03.647Z,13.18
2022-09-12T06:39:03.662Z,13.22
2022-09-12T06:40:03.651Z,13.27
2022-09-12T06:41:03.617Z,13.30
2022-09-12T06:42:03.593Z,13.40
2022-09-12T06:43:03.591Z,13.46
2022-09-12T06:44:03.594Z,13.54
2022-09-12T06:45:03.563Z,13.65
2022-09-12T06:46:03.607Z,13.71
2022-09-12T06:47:03.543Z,13.76
2022-09-12T06:48:03.553Z,13.79
2022-09-12T06:49:03.534Z,13.80
2022-09-12T06:50:03.551Z,13.80
2022-09-12T06:51:03.513Z,13.81
2022-09-12T06:52:03.500Z,13.84
2022-09-12T06:53:03.476Z,13.84
2022-09-12T06:54:03.452Z,13.87
2022-09-12T06:55:03.452Z,13.89
2022-09-12T06:56:03.574Z,13.92
2022-09-12T06:57:03.433Z,13.89
2022-09-12T06:58:03.422Z,13.88
2022-09-12T06:59:03.403Z,13.91
2022-09-12T07:00:03.384Z,13.99
2022-09-12T07:01:03.478Z,14.04
2022-09-12T07:02:03.620Z,14.10
2022-09-12T07:03:03.364Z,14.17
2022-09-12T07:04:03.353Z,14.19
2022-09-12T07:05:03.346Z,14.25
2022-09-12T07:06:03.332Z,14.24
2022-09-12T07:07:03.335Z,14.21
2022-09-12T07:08:03.318Z,14.20
2022-09-12T07:09:03.318Z,14.27
2022-09-12T07:10:03.294Z,14.35
2022-09-12T07:11:03.267Z,14.44
2022-09-12T07:12:03.266Z,14.52
2022-09-12T07:13:03.308Z,14.61
2022-09-12T07:14:03.246Z,14.71
2022-09-12T07:15:03.232Z,14.75
2022-09-12T07:16:03.291Z,14.80
2022-09-12T07:17:03.242Z,14.80
2022-09-12T07:18:03.197Z,14.84
2022-09-12T07:19:03.199Z,14.84
2022-09-12T07:20:03.169Z,14.93
2022-09-12T07:21:03.174Z,14.88
2022-09-12T07:22:03.190Z,14.78
2022-09-12T07:23:03.128Z,14.64
2022-09-12T07:24:03.127Z,14.71
2022-09-12T07:25:03.130Z,14.81
2022-09-12T07:26:03.100Z,14.95
2022-09-12T07:27:03.103Z,15.05
2022-09-12T07:28:03.087Z,15.08
2022-09-12T07:29:25.514Z,15.20
2022-09-12T07:30:04.079Z,15.15
2022-09-12T07:31:03.140Z,15.15
2022-09-12T07:32:03.032Z,15.17
2022-09-12T07:33:03.023Z,15.13
2022-09-12T07:34:03.001Z,15.23
2022-09-12T07:35:03.072Z,15.35
2022-09-12T07:36:03.011Z,15.48
2022-09-12T07:37:02.984Z,15.57
2022-09-12T07:38:02.979Z,15.63
2022-09-12T07:39:02.967Z,15.61
2022-09-12T07:40:03.043Z,15.57
2022-09-12T07:41:02.932Z,15.52
2022-09-12T07:42:02.945Z,15.61
2022-09-12T07:43:02.912Z,15.67
2022-09-12T07:44:02.885Z,15.66
2022-09-12T07:45:02.882Z,15.61
2022-09-12T07:46:02.909Z,15.60
2022-09-12T07:47:02.858Z,15.66
2022-09-12T07:48:02.876Z,15.76
2022-09-12T07:49:02.836Z,15.85
2022-09-12T07:50:02.814Z,15.97
2022-09-12T07:51:02.813Z,16.06
2022-09-12T07:52:02.798Z,16.12
2022-09-12T07:53:02.796Z,16.18
2022-09-12T07:54:02.795Z,16.23
2022-09-12T07:55:02.788Z,16.35
2022-09-12T07:56:02.748Z,16.40
2022-09-12T07:57:02.738Z,16.50
2022-09-12T07:58:02.743Z,16.52
2022-09-12T07:59:02.718Z,16.48
2022-09-12T08:00:02.736Z,16.49
2022-09-12T08:01:02.725Z,16.50
2022-09-12T08:02:02.766Z,16.59
2022-09-12T08:03:02.675Z,16.65
2022-09-12T08:04:02.661Z,16.58
2022-09-12T08:05:02.656Z,16.53
2022-09-12T08:06:02.660Z,16.63
2022-09-12T08:07:02.629Z,16.81
2022-09-12T08:08:02.617Z,16.95
2022-09-12T08:09:02.607Z,17.11
2022-09-12T08:10:02.588Z,17.17
2022-09-12T08:11:02.609Z,17.06
2022-09-12T08:12:02.581Z,17.11
2022-09-12T08:13:02.590Z,17.18
2022-09-12T08:14:02.551Z,17.18
2022-09-12T08:15:02.549Z,17.25
2022-09-12T08:16:02.595Z,17.30
2022-09-12T08:17:02.634Z,17.28
2022-09-12T08:18:02.509Z,17.28
2022-09-12T08:19:02.499Z,17.15
2022-09-12T08:20:02.482Z,17.18
2022-09-12T08:21:02.471Z,17.22
2022-09-12T08:22:02.455Z,17.28
2022-09-12T08:23:02.473Z,17.41
2022-09-12T08:24:02.461Z,17.62
2022-09-12T08:25:02.425Z,17.74
2022-09-12T08:26:05.770Z,17.87
2022-09-12T08:27:02.413Z,18.04
2022-09-12T08:28:02.383Z,18.09
2022-09-12T08:29:02.408Z,18.06
2022-09-12T08:30:02.364Z,18.10
2022-09-12T08:31:02.419Z,18.22
2022-09-12T08:32:02.344Z,18.33
2022-09-12T08:33:02.334Z,18.46
2022-09-12T08:34:02.323Z,18.46
2022-09-12T08:35:02.332Z,18.29
2022-09-12T08:36:02.304Z,18.24
2022-09-12T08:37:02.288Z,18.31
2022-09-12T08:38:02.275Z,18.40
2022-09-12T08:39:02.262Z,18.49
2022-09-12T08:40:02.341Z,18.47
2022-09-12T08:41:02.249Z,18.57
2022-09-12T08:42:02.278Z,18.67
2022-09-12T08:43:02.227Z,18.73
2022-09-12T08:44:02.206Z,18.79
2022-09-12T08:45:02.202Z,18.84
2022-09-12T08:46:02.272Z,18.91
2022-09-12T08:47:02.168Z,18.92
2022-09-12T08:48:02.172Z,18.76
2022-09-12T08:49:02.151Z,18.55
2022-09-12T08:50:02.157Z,18.43
2022-09-12T08:51:02.128Z,18.49
2022-09-12T08:52:02.131Z,18.68
2022-09-12T08:53:02.102Z,18.82
2022-09-12T08:54:02.111Z,18.94
2022-09-12T08:55:02.081Z,19.02
2022-09-12T08:56:02.062Z,19.08
2022-09-12T08:57:02.079Z,19.08
2022-09-12T08:58:02.043Z,19.18
2022-09-12T08:59:02.030Z,19.25
2022-09-12T09:00:02.018Z,19.31
2022-09-12T09:01:02.013Z,19.50
2022-09-12T09:02:02.018Z,19.69
2022-09-12T09:03:02.018Z,19.69
2022-09-12T09:04:01.983Z,19.65
2022-09-12T09:05:01.962Z,19.73
2022-09-12T09:06:01.978Z,19.90
2022-09-12T09:07:01.957Z,20.08
2022-09-12T09:08:01.935Z,20.25
2022-09-12T09:09:01.957Z,20.46
2022-09-12T09:10:01.902Z,20.56
2022-09-12T09:11:01.903Z,20.68
2022-09-12T09:12:01.891Z,20.68
2022-09-12T09:13:01.873Z,20.68
2022-09-12T09:14:05.035Z,20.58
2022-09-12T09:15:01.874Z,20.61
2022-09-12T09:16:01.901Z,20.69
2022-09-12T09:17:01.836Z,20.79
2022-09-12T09:18:01.835Z,20.62
2022-09-12T09:19:01.841Z,20.71
2022-09-12T09:20:01.846Z,20.83
2022-09-12T09:21:01.788Z,20.86
2022-09-12T09:22:01.778Z,20.84
2022-09-12T09:23:01.769Z,20.89
2022-09-12T09:24:01.736Z,20.95
2022-09-12T09:25:01.738Z,21.02
2022-09-12T09:26:01.741Z,21.09
2022-09-12T09:27:01.707Z,20.98
2022-09-12T09:28:01.721Z,20.81
2022-09-12T09:29:01.698Z,20.93
2022-09-12T09:30:01.685Z,21.01
2022-09-12T09:31:01.727Z,20.89
2022-09-12T09:32:01.648Z,21.02
2022-09-12T09:33:01.642Z,21.13
2022-09-12T09:34:01.647Z,21.24
2022-09-12T09:35:01.626Z,21.27
2022-09-12T09:36:01.611Z,21.30
2022-09-12T09:37:01.621Z,21.24
2022-09-12T09:38:01.593Z,21.21
2022-09-12T09:39:01.582Z,21.26
2022-09-12T09:40:01.637Z,21.38
2022-09-12T09:41:01.554Z,21.54
2022-09-12T09:42:01.544Z,21.75
2022-09-12T09:43:01.592Z,21.69
2022-09-12T09:44:01.602Z,21.61
2022-09-12T09:45:01.516Z,21.57
2022-09-12T09:46:01.537Z,21.69
2022-09-12T09:47:01.503Z,21.83
2022-09-12T09:48:01.477Z,21.83
2022-09-12T09:49:02.433Z,21.95
2022-09-12T09:50:01.452Z,22.06
2022-09-12T09:51:01.443Z,22.04
2022-09-12T09:52:01.454Z,22.16
2022-09-12T09:53:01.424Z,22.23
2022-09-12T09:54:01.406Z,22.06
2022-09-12T09:55:01.426Z,21.83
2022-09-12T09:56:01.386Z,21.64
2022-09-12T09:57:01.395Z,21.53
2022-09-12T09:58:01.357Z,21.56
2022-09-12T09:59:01.348Z,21.54
2022-09-12T10:00:01.347Z,21.63
2022-09-12T10:01:01.416Z,21.74
2022-09-12T10:02:01.339Z,21.79
2022-09-12T10:03:01.349Z,21.82
2022-09-12T10:04:01.332Z,21.99
2022-09-12T10:05:01.282Z,22.13
2022-09-12T10:06:01.279Z,22.23
2022-09-12T10:07:01.320Z,22.29
2022-09-12T10:08:01.249Z,22.41
2022-09-12T10:09:01.256Z,22.16
2022-09-12T10:10:01.230Z,22.19
2022-09-12T10:11:01.220Z,22.13
2022-09-12T10:12:01.229Z,22.10
2022-09-12T10:13:01.211Z,22.10
2022-09-12T10:14:01.192Z,22.07
2022-09-12T10:15:01.200Z,22.04
2022-09-12T10:16:01.229Z,22.07
2022-09-12T10:17:01.154Z,22.09
2022-09-12T10:18:01.274Z,22.10
2022-09-12T10:19:01.124Z,22.14
2022-09-12T10:20:19.802Z,22.16
2022-09-12T10:21:02.135Z,22.34
2022-09-12T10:22:01.102Z,22.35
2022-09-12T10:23:01.074Z,22.57
2022-09-12T10:24:01.115Z,22.67
2022-09-12T10:25:01.065Z,22.75
2022-09-12T10:26:01.045Z,22.75
2022-09-12T10:27:01.035Z,22.78
2022-09-12T10:28:01.036Z,22.83
2022-09-12T10:29:01.034Z,22.92
2022-09-12T10:30:01.005Z,23.04
2022-09-12T10:31:01.014Z,22.89
2022-09-12T10:32:00.987Z,22.67
2022-09-12T10:33:00.975Z,22.68
2022-09-12T10:34:00.986Z,22.82
2022-09-12T10:35:00.959Z,22.92
2022-09-12T10:36:00.938Z,22.62
2022-09-12T10:37:00.918Z,22.41
2022-09-12T10:38:00.938Z,22.16
2022-09-12T10:39:00.907Z,22.31
2022-09-12T10:40:01.004Z,22.44
2022-09-12T10:41:00.881Z,22.39
2022-09-12T10:42:00.881Z,22.52
2022-09-12T10:43:00.860Z,22.47
2022-09-12T10:44:00.849Z,22.65
2022-09-12T10:45:00.839Z,22.87
2022-09-12T10:46:00.888Z,23.04
2022-09-12T10:47:00.823Z,22.96
2022-09-12T10:48:05.476Z,22.87
2022-09-12T10:49:01.791Z,23.04
2022-09-12T10:50:00.792Z,23.02
2022-09-12T10:51:00.785Z,22.86
2022-09-12T10:52:00.760Z,22.93
2022-09-12T10:53:00.742Z,23.05
2022-09-12T10:54:00.733Z,23.02
2022-09-12T10:55:00.722Z,23.02
2022-09-12T10:56:00.703Z,23.12
2022-09-12T10:57:00.714Z,23.23
2022-09-12T10:58:00.686Z,23.17
2022-09-12T10:59:00.711Z,23.31
2022-09-12T11:00:00.664Z,23.39
2022-09-12T11:01:00.731Z,23.49
2022-09-12T11:02:00.706Z,23.45
2022-09-12T11:03:00.636Z,23.47
2022-09-12T11:04:00.616Z,23.55
2022-09-12T11:05:00.626Z,23.58
2022-09-12T11:06:00.623Z,23.50
2022-09-12T11:07:00.588Z,23.60
2022-09-12T11:08:00.604Z,23.49
2022-09-12T11:09:00.558Z,23.46
2022-09-12T11:10:00.547Z,23.43
2022-09-12T11:11:00.539Z,23.39
2022-09-12T11:12:00.528Z,23.26
2022-09-12T11:13:00.527Z,23.29
2022-09-12T11:14:00.529Z,23.40
2022-09-12T11:15:00.488Z,23.31
2022-09-12T11:16:00.526Z,23.27
2022-09-12T11:17:00.471Z,23.26
2022-09-12T11:18:00.463Z,23.34
2022-09-12T11:19:00.461Z,23.23
2022-09-12T11:20:00.458Z,23.40
2022-09-12T11:21:00.451Z,23.50
2022-09-12T11:22:00.407Z,23.50
2022-09-12T11:23:00.440Z,23.40
2022-09-12T11:24:00.382Z,23.29
2022-09-12T11:25:00.379Z,23.34
2022-09-12T11:26:00.382Z,23.24
2022-09-12T11:27:00.373Z,23.24
2022-09-12T11:28:00.343Z,22.97
2022-09-12T11:29:00.343Z,23.02
2022-09-12T11:30:00.313Z,23.12
2022-09-12T11:31:00.438Z,23.32
2022-09-12T11:32:00.296Z,23.32
2022-09-12T11:33:00.342Z,23.29
2022-09-12T11:34:00.275Z,23.22
2022-09-12T11:35:00.275Z,23.34
2022-09-12T11:36:00.255Z,23.42
2022-09-12T11:37:00.266Z,23.49
2022-09-12T11:38:00.226Z,23.49
2022-09-12T11:39:00.216Z,23.42
2022-09-12T11:40:00.276Z,23.39
2022-09-12T11:41:00.196Z,23.47
2022-09-12T11:42:00.701Z,23.53
2022-09-12T11:43:00.177Z,23.62
2022-09-12T11:44:00.157Z,23.67
2022-09-12T11:45:00.147Z,23.72
2022-09-12T11:46:00.198Z,23.80
2022-09-12T11:47:00.130Z,23.76
2022-09-12T11:48:00.148Z,23.67
2022-09-12T11:49:00.108Z,23.50
2022-09-12T11:50:00.114Z,23.61
2022-09-12T11:51:00.079Z,23.68
2022-09-12T11:52:00.088Z,23.77
2022-09-12T11:53:00.075Z,23.80
2022-09-12T11:54:00.111Z,23.76
2022-09-12T11:55:00.041Z,23.86
2022-09-12T11:56:00.030Z,23.90
2022-09-12T11:57:00.011Z,24.05
2022-09-12T11:58:00.007Z,24.16
2022-09-12T11:58:59.992Z,24.20
2022-09-12T12:00:00.004Z,24.20
2022-09-12T12:00:59.964Z,24.22
2022-09-12T12:02:00.074Z,24.27
2022-09-12T12:02:59.944Z,24.16
2022-09-12T12:03:59.979Z,24.08
2022-09-12T12:04:59.973Z,23.98
2022-09-12T12:05:59.914Z,23.92
2022-09-12T12:06:59.904Z,23.86
2022-09-12T12:07:59.885Z,23.94
2022-09-12T12:08:59.888Z,23.97
2022-09-12T12:09:59.868Z,23.95
2022-09-12T12:10:59.895Z,23.98
2022-09-12T12:11:59.836Z,23.87
2022-09-12T12:12:59.836Z,23.82
2022-09-12T12:13:59.826Z,23.80
2022-09-12T12:14:59.809Z,23.85
2022-09-12T12:15:59.858Z,23.92
2022-09-12T12:16:59.817Z,23.90
2022-09-12T12:17:59.778Z,23.94
2022-09-12T12:18:59.772Z,24.01
2022-09-12T12:20:04.304Z,24.08
2022-09-12T12:21:00.740Z,24.00
2022-09-12T12:21:59.729Z,24.00
2022-09-12T12:22:59.756Z,24.05
2022-09-12T12:23:59.723Z,23.94
2022-09-12T12:24:59.698Z,23.94
2022-09-12T12:25:59.693Z,23.85
2022-09-12T12:26:59.684Z,23.85
2022-09-12T12:27:59.661Z,23.82
2022-09-12T12:28:59.675Z,23.82
2022-09-12T12:29:59.643Z,23.77
2022-09-12T12:30:59.706Z,23.80
2022-09-12T12:31:59.624Z,23.79
2022-09-12T12:32:59.641Z,23.80
2022-09-12T12:33:59.655Z,23.83
2022-09-12T12:34:59.585Z,23.94
2022-09-12T12:35:59.606Z,24.05
2022-09-12T12:37:02.191Z,24.00
2022-09-12T12:37:59.554Z,24.05
2022-09-12T12:38:59.605Z,24.12
2022-09-12T12:39:59.547Z,24.13
2022-09-12T12:40:59.516Z,24.16
2022-09-12T12:41:59.506Z,24.12
2022-09-12T12:42:59.507Z,24.04
2022-09-12T12:43:59.486Z,24.02
2022-09-12T12:44:59.506Z,24.04
2022-09-12T12:45:59.509Z,24.05
2022-09-12T12:46:59.455Z,24.10
2022-09-12T12:47:59.476Z,24.12
2022-09-12T12:48:59.429Z,24.05
2022-09-12T12:49:59.428Z,23.76
2022-09-12T12:50:59.439Z,23.67
2022-09-12T12:51:59.385Z,23.76